createdAt,value
2022-08-17T00:00:35.296Z,457
2022-08-17T00:02:19.002Z,456.9
2022-08-17T00:04:02.710Z,458.2
2022-08-17T00:05:46.415Z,456
2022-08-17T00:07:30.107Z,453.4
2022-08-17T00:09:13.804Z,454
2022-08-17T00:10:57.516Z,453.4
2022-08-17T00:12:41.216Z,455.8
2022-08-17T00:14:24.920Z,459.8
2022-08-17T00:16:08.632Z,458.6
2022-08-17T00:17:52.322Z,459.1
2022-08-17T00:19:36.014Z,463.9
2022-08-17T00:21:19.712Z,461.9
2022-08-17T00:23:03.417Z,462.7
2022-08-17T00:24:47.132Z,463.1
2022-08-17T00:26:30.816Z,461.9
2022-08-17T00:28:14.509Z,460.3
2022-08-17T00:29:58.230Z,460.9
2022-08-17T00:31:41.931Z,457.6
2022-08-17T00:33:25.629Z,456.2
2022-08-17T00:35:09.322Z,457.6
2022-08-17T00:36:53.040Z,458
2022-08-17T00:38:36.731Z,457.2
2022-08-17T00:40:20.437Z,456.3
2022-08-17T00:42:04.119Z,457.6
2022-08-17T00:43:47.841Z,456
2022-08-17T00:45:31.532Z,457
2022-08-17T00:47:15.239Z,458.2
2022-08-17T00:48:58.942Z,462.8
2022-08-17T00:50:42.635Z,462.9
2022-08-17T00:52:26.335Z,465.6
2022-08-17T00:54:10.044Z,466.7
2022-08-17T00:55:53.746Z,464.9
2022-08-17T00:57:37.456Z,462.1
2022-08-17T00:59:21.149Z,461.5
2022-08-17T01:01:04.857Z,463.3
2022-08-17T01:02:48.561Z,464.6
2022-08-17T01:04:32.262Z,462.3
2022-08-17T01:06:15.957Z,463.4
2022-08-17T01:07:59.687Z,463
2022-08-17T01:09:43.379Z,464.1
2022-08-17T01:11:27.070Z,464.4
2022-08-17T01:13:10.783Z,463.9
2022-08-17T01:14:54.486Z,460.3
2022-08-17T01:16:38.176Z,459
2022-08-17T01:18:21.882Z,458.4
2022-08-17T01:20:05.617Z,459.4
2022-08-17T01:21:49.286Z,459.1
2022-08-17T01:23:32.978Z,457.8
2022-08-17T01:25:16.680Z,458.6
2022-08-17T01:27:00.394Z,461.7
2022-08-17T01:28:44.089Z,464
2022-08-17T01:30:27.793Z,463.5
2022-08-17T01:32:11.487Z,462.8
2022-08-17T01:33:55.195Z,462
2022-08-17T01:35:38.898Z,461.2
2022-08-17T01:37:22.595Z,461.4
2022-08-17T01:39:06.295Z,461.8
2022-08-17T01:40:50.014Z,464.5
2022-08-17T01:42:33.708Z,464.4
2022-08-17T01:44:17.401Z,463.2
2022-08-17T01:46:01.091Z,464.4
2022-08-17T01:47:44.795Z,462.8
2022-08-17T01:49:28.510Z,462.1
2022-08-17T01:51:12.205Z,460.6
2022-08-17T01:52:55.894Z,460.9
2022-08-17T01:54:39.616Z,461.4
2022-08-17T01:56:23.327Z,461.3
2022-08-17T01:58:07.020Z,460.9
2022-08-17T01:59:50.723Z,460.7
2022-08-17T02:01:34.425Z,460.3
2022-08-17T02:03:18.133Z,460.6
2022-08-17T02:05:01.820Z,464.1
2022-08-17T02:06:45.546Z,464.6
2022-08-17T02:08:29.248Z,464.3
2022-08-17T02:10:12.953Z,465.4
2022-08-17T02:11:56.636Z,463.1
2022-08-17T02:13:40.327Z,462.8
2022-08-17T02:15:24.055Z,460.5
2022-08-17T02:17:07.755Z,461.9
2022-08-17T02:18:51.467Z,459.2
2022-08-17T02:20:35.131Z,459.3
2022-08-17T02:22:18.841Z,460.3
2022-08-17T02:24:02.543Z,461.2
2022-08-17T02:25:46.263Z,460.9
2022-08-17T02:27:29.935Z,460.1
2022-08-17T02:29:13.652Z,459
2022-08-17T02:30:57.355Z,458.7
2022-08-17T02:32:41.099Z,458.3
2022-08-17T02:34:24.770Z,456.3
2022-08-17T02:36:08.460Z,458.2
2022-08-17T02:37:52.178Z,457.7
2022-08-17T02:39:35.876Z,457.1
2022-08-17T02:41:19.557Z,457.2
2022-08-17T02:43:03.277Z,457.3
2022-08-17T02:44:46.966Z,455
2022-08-17T02:46:30.673Z,454.3
2022-08-17T02:48:14.376Z,453.5
2022-08-17T02:49:58.073Z,454.3
2022-08-17T02:51:41.786Z,451.3
2022-08-17T02:53:25.479Z,450.9
2022-08-17T02:55:09.188Z,456.6
2022-08-17T02:56:52.885Z,455.9
2022-08-17T02:58:36.584Z,452.7
2022-08-17T03:00:20.277Z,452.3
2022-08-17T03:02:03.999Z,454.4
2022-08-17T03:03:47.693Z,454.9
2022-08-17T03:05:31.383Z,456.3
2022-08-17T03:07:15.088Z,458.5
2022-08-17T03:08:58.787Z,458.6
2022-08-17T03:10:42.486Z,455.3
2022-08-17T03:12:26.184Z,452.3
2022-08-17T03:14:09.888Z,449.7
2022-08-17T03:15:53.596Z,451.1
2022-08-17T03:17:37.306Z,454.2
2022-08-17T03:19:21.010Z,453.7
2022-08-17T03:21:04.709Z,456
2022-08-17T03:22:48.413Z,459.9
2022-08-17T03:24:32.116Z,463
2022-08-17T03:26:15.805Z,463.8
2022-08-17T03:27:59.510Z,460.8
2022-08-17T03:29:43.197Z,459
2022-08-17T03:31:26.921Z,460.4
2022-08-17T03:33:10.619Z,462.1
2022-08-17T03:34:54.366Z,462.2
2022-08-17T03:36:38.019Z,462.6
2022-08-17T03:38:21.722Z,462.7
2022-08-17T03:40:05.421Z,461.5
2022-08-17T03:41:49.120Z,459.8
2022-08-17T03:43:32.804Z,460.1
2022-08-17T03:45:16.522Z,461.3
2022-08-17T03:47:00.234Z,459.9
2022-08-17T03:48:43.907Z,458.3
2022-08-17T03:50:27.617Z,458
2022-08-17T03:52:11.325Z,460
2022-08-17T03:53:55.030Z,461.4
2022-08-17T03:57:22.437Z,461.2
2022-08-17T03:59:06.142Z,458.9
2022-08-17T04:00:49.828Z,457.3
2022-08-17T04:02:33.554Z,455.3
2022-08-17T04:04:17.239Z,454.9
2022-08-17T04:06:00.938Z,457
2022-08-17T04:07:44.639Z,458.3
2022-08-17T04:09:28.342Z,460
2022-08-17T04:11:12.029Z,461.1
2022-08-17T04:12:55.727Z,461.9
2022-08-17T04:14:39.441Z,463.7
2022-08-17T04:16:23.139Z,462.5
2022-08-17T04:18:06.844Z,460.7
2022-08-17T04:19:50.549Z,460.4
2022-08-17T04:21:34.265Z,460.5
2022-08-17T04:23:17.987Z,460.4
2022-08-17T04:25:01.660Z,459.9
2022-08-17T04:26:45.354Z,459.7
2022-08-17T04:28:29.056Z,458
2022-08-17T04:30:12.757Z,458.4
2022-08-17T04:31:56.469Z,457.5
2022-08-17T04:33:40.172Z,459.7
2022-08-17T04:35:23.859Z,457.7
2022-08-17T04:37:07.560Z,459.5
2022-08-17T04:38:51.264Z,460.9
2022-08-17T04:40:34.952Z,459.5
2022-08-17T04:42:18.660Z,455.7
2022-08-17T04:44:02.362Z,454.2
2022-08-17T04:45:46.086Z,456.1
2022-08-17T04:47:29.788Z,457.5
2022-08-17T04:49:13.477Z,453.4
2022-08-17T04:50:57.190Z,454.5
2022-08-17T04:52:40.885Z,458.4
2022-08-17T04:54:24.589Z,457.1
2022-08-17T04:56:08.268Z,457.2
2022-08-17T04:57:51.992Z,457.1
2022-08-17T04:59:35.681Z,456.9
2022-08-17T05:01:19.383Z,456.5
2022-08-17T05:03:03.089Z,454.8
2022-08-17T05:04:46.794Z,455.9
2022-08-17T05:06:30.506Z,458.9
2022-08-17T05:08:14.201Z,457.7
2022-08-17T05:09:57.910Z,454.2
2022-08-17T05:11:41.590Z,457.6
2022-08-17T05:13:25.291Z,455.8
2022-08-17T05:15:09.003Z,454.2
2022-08-17T05:16:52.714Z,454.4
2022-08-17T05:18:36.402Z,455.9
2022-08-17T05:20:20.106Z,455.9
2022-08-17T05:22:03.807Z,457.9
2022-08-17T05:23:47.514Z,459
2022-08-17T05:25:31.199Z,454.6
2022-08-17T05:27:14.902Z,451.3
2022-08-17T05:28:58.612Z,449.8
2022-08-17T05:30:42.311Z,444.4
2022-08-17T05:32:26.017Z,441.8
2022-08-17T05:34:09.710Z,440.4
2022-08-17T05:35:53.416Z,441
2022-08-17T05:37:37.115Z,440.2
2022-08-17T05:39:20.838Z,439.1
2022-08-17T05:41:04.530Z,444
2022-08-17T05:42:48.230Z,446.5
2022-08-17T05:44:31.936Z,448.1
2022-08-17T05:46:15.628Z,449
2022-08-17T05:47:59.329Z,451.2
2022-08-17T05:49:43.023Z,455.7
2022-08-17T05:51:26.733Z,458.2
2022-08-17T05:53:10.438Z,458.2
2022-08-17T05:54:54.139Z,455.5
2022-08-17T05:56:37.841Z,454.8
2022-08-17T05:58:21.552Z,453.9
2022-08-17T06:00:05.246Z,457.2
2022-08-17T06:01:48.942Z,461.6
2022-08-17T06:03:32.655Z,464.2
2022-08-17T06:05:16.339Z,464.2
2022-08-17T06:07:00.063Z,463.4
2022-08-17T06:08:43.742Z,464.3
2022-08-17T06:10:27.425Z,465.3
2022-08-17T06:12:11.141Z,463.8
2022-08-17T06:13:54.851Z,465.1
2022-08-17T06:15:38.539Z,467.8
2022-08-17T06:17:22.240Z,469.6
2022-08-17T06:19:05.939Z,468.4
2022-08-17T06:20:49.692Z,468.8
2022-08-17T06:22:33.336Z,466.3
2022-08-17T06:24:17.040Z,463.5
2022-08-17T06:26:00.774Z,459.1
2022-08-17T06:27:44.445Z,459
2022-08-17T06:29:28.150Z,458.1
2022-08-17T06:31:11.837Z,456.2
2022-08-17T06:32:55.574Z,456.2
2022-08-17T06:34:39.253Z,454.3
2022-08-17T06:36:22.945Z,454.2
2022-08-17T06:38:06.644Z,453
2022-08-17T06:39:50.364Z,451.1
2022-08-17T06:41:34.073Z,449.9
2022-08-17T06:43:17.752Z,449.3
2022-08-17T06:45:01.456Z,447.3
2022-08-17T06:46:45.159Z,447
2022-08-17T06:48:28.869Z,444.7
2022-08-17T06:50:12.569Z,441.3
2022-08-17T06:51:56.262Z,442.5
2022-08-17T06:53:39.972Z,446.1
2022-08-17T06:55:23.688Z,448
2022-08-17T06:57:07.369Z,449.2
2022-08-17T06:58:51.079Z,449.3
2022-08-17T07:00:34.792Z,453.3
2022-08-17T07:02:18.492Z,456.2
2022-08-17T07:04:02.213Z,457.6
2022-08-17T07:05:45.900Z,455.9
2022-08-17T07:07:29.608Z,456.9
2022-08-17T07:09:13.309Z,457.6
2022-08-17T07:10:57.005Z,454.3
2022-08-17T07:12:40.701Z,454.5
2022-08-17T07:14:24.418Z,451.4
2022-08-17T07:16:08.103Z,449.9
2022-08-17T07:17:51.816Z,452.4
2022-08-17T07:19:35.517Z,451.5
2022-08-17T07:21:19.202Z,450
2022-08-17T07:23:02.925Z,453.1
2022-08-17T07:24:46.619Z,453.2
2022-08-17T07:26:30.314Z,450.5
2022-08-17T07:28:14.032Z,451.1
2022-08-17T07:29:57.727Z,451.5
2022-08-17T07:31:41.428Z,453
2022-08-17T07:33:25.132Z,449.7
2022-08-17T07:35:08.839Z,448.4
2022-08-17T07:36:52.555Z,448.7
2022-08-17T07:38:36.244Z,445.7
2022-08-17T07:40:19.942Z,445.3
2022-08-17T07:42:03.644Z,445
2022-08-17T07:43:47.339Z,445.8
2022-08-17T07:45:31.052Z,444
2022-08-17T07:47:14.745Z,442.3
2022-08-17T07:48:58.453Z,439
2022-08-17T07:50:42.170Z,439.4
2022-08-17T07:52:25.877Z,441.4
2022-08-17T07:54:09.584Z,440.8
2022-08-17T07:55:53.272Z,442.6
2022-08-17T07:57:36.966Z,442.3
2022-08-17T07:59:20.688Z,443.7
2022-08-17T08:01:04.380Z,443.9
2022-08-17T08:02:48.107Z,442.6
2022-08-17T08:04:31.772Z,442.8
2022-08-17T08:06:15.504Z,444.7
2022-08-17T08:07:59.207Z,444.4
2022-08-17T08:09:42.906Z,446.5
2022-08-17T08:11:26.603Z,446.3
2022-08-17T08:13:10.306Z,447.5
2022-08-17T08:14:54.045Z,447.5
2022-08-17T08:16:37.824Z,447.8
2022-08-17T08:18:21.418Z,446.9
2022-08-17T08:20:05.111Z,445.7
2022-08-17T08:21:48.842Z,445.7
2022-08-17T08:23:32.522Z,446.1
2022-08-17T08:25:16.237Z,449.3
2022-08-17T08:26:59.937Z,450.8
2022-08-17T08:33:54.760Z,454.4
2022-08-17T08:35:38.469Z,457.2
2022-08-17T08:37:22.185Z,460.4
2022-08-17T08:39:12.914Z,462.8
2022-08-17T08:40:49.570Z,463
2022-08-17T08:42:33.274Z,465.2
2022-08-17T08:44:16.978Z,466.5
2022-08-17T08:46:00.684Z,464.8
2022-08-17T08:47:44.375Z,468.9
2022-08-17T08:49:28.089Z,475.1
2022-08-17T08:51:11.800Z,478.1
2022-08-17T08:52:55.506Z,481.5
2022-08-17T08:54:39.187Z,496.9
2022-08-17T08:56:22.874Z,557.3
2022-08-17T08:58:06.580Z,578.8
2022-08-17T08:59:50.298Z,575.1
2022-08-17T09:01:33.991Z,569.1
2022-08-17T09:03:17.706Z,559.2
2022-08-17T09:05:01.401Z,541.5
2022-08-17T09:06:45.097Z,524
2022-08-17T09:08:28.797Z,508.8
2022-08-17T09:10:12.495Z,502.2
2022-08-17T09:11:56.205Z,494.8
2022-08-17T09:13:39.902Z,484.8
2022-08-17T09:15:23.595Z,479.3
2022-08-17T09:17:07.316Z,475.7
2022-08-17T09:18:51.011Z,469.3
2022-08-17T09:20:34.730Z,466.7
2022-08-17T09:22:18.415Z,463.5
2022-08-17T09:24:02.103Z,459.2
2022-08-17T09:25:45.838Z,455.1
2022-08-17T09:27:29.512Z,452.2
2022-08-17T09:29:13.211Z,449.1
2022-08-17T09:30:56.918Z,445
2022-08-17T09:32:40.627Z,441.6
2022-08-17T09:34:24.331Z,442
2022-08-17T09:36:08.265Z,441.5
2022-08-17T09:37:51.706Z,440.3
2022-08-17T09:39:35.424Z,438.4
2022-08-17T09:41:19.131Z,436.4
2022-08-17T09:43:02.820Z,434.2
2022-08-17T09:46:30.246Z,451.3
2022-08-17T09:48:13.932Z,460
2022-08-17T09:49:57.617Z,463.6
2022-08-17T09:51:41.330Z,463.4
2022-08-17T09:53:25.046Z,467.8
2022-08-17T09:55:08.740Z,469.8
2022-08-17T09:56:52.436Z,472.4
2022-08-17T09:58:36.135Z,470.7
2022-08-17T10:00:19.837Z,467.1
2022-08-17T10:02:03.550Z,462.8
2022-08-17T10:03:47.243Z,459.1
2022-08-17T10:05:30.946Z,456
2022-08-17T10:07:14.639Z,456.9
2022-08-17T10:08:58.356Z,459.6
2022-08-17T10:10:42.036Z,457.9
2022-08-17T10:12:25.737Z,457.1
2022-08-17T10:14:09.445Z,455.2
2022-08-17T10:15:53.157Z,456
2022-08-17T10:17:36.852Z,455.3
2022-08-17T10:19:20.551Z,458.4
2022-08-17T10:21:04.276Z,454.3
2022-08-17T10:22:47.960Z,452
2022-08-17T10:24:31.651Z,452.1
2022-08-17T10:26:15.354Z,450.1
2022-08-17T10:27:59.065Z,448.5
2022-08-17T10:29:42.761Z,445.5
2022-08-17T10:31:26.453Z,447.3
2022-08-17T10:33:10.156Z,448.4
2022-08-17T10:34:53.870Z,447.7
2022-08-17T10:36:37.560Z,449.2
2022-08-17T10:38:21.259Z,447.1
2022-08-17T10:40:04.978Z,442.9
2022-08-17T10:41:48.659Z,444.2
2022-08-17T10:43:32.382Z,445.8
2022-08-17T10:45:16.071Z,446.7
2022-08-17T10:46:59.769Z,448.9
2022-08-17T10:48:43.474Z,448
2022-08-17T10:50:27.173Z,447
2022-08-17T10:52:10.893Z,448.2
2022-08-17T10:53:54.600Z,448.9
2022-08-17T10:55:38.314Z,452.7
2022-08-17T10:57:21.990Z,455.6
2022-08-17T10:59:05.680Z,455.4
2022-08-17T11:00:49.397Z,458.4
2022-08-17T11:02:33.104Z,462.5
2022-08-17T11:04:16.805Z,465
2022-08-17T11:06:00.498Z,469.4
2022-08-17T11:07:44.204Z,470.1
2022-08-17T11:09:27.911Z,465.9
2022-08-17T11:11:11.620Z,465.3
2022-08-17T11:12:55.311Z,470.5
2022-08-17T11:14:39.015Z,467.1
2022-08-17T11:16:22.722Z,463.5
2022-08-17T11:18:06.421Z,459.9
2022-08-17T11:19:50.138Z,457.4
2022-08-17T11:21:33.821Z,453.8
2022-08-17T11:23:17.517Z,448.4
2022-08-17T11:25:01.237Z,444.9
2022-08-17T11:26:44.919Z,440.8
2022-08-17T11:28:28.627Z,440.5
2022-08-17T11:30:12.312Z,444.2
2022-08-17T11:31:56.057Z,444.6
2022-08-17T11:33:39.724Z,443.6
2022-08-17T11:35:23.444Z,441
2022-08-17T11:37:07.128Z,441.7
2022-08-17T11:38:50.833Z,440.6
2022-08-17T11:40:34.513Z,439.2
2022-08-17T11:42:18.243Z,436.5
2022-08-17T11:45:45.635Z,436
2022-08-17T11:47:29.330Z,435.1
2022-08-17T11:49:13.039Z,434.7
2022-08-17T11:50:56.750Z,435.5
2022-08-17T11:52:40.450Z,434.7
2022-08-17T11:54:24.144Z,433.6
2022-08-17T11:56:07.857Z,433.3
2022-08-17T11:57:51.552Z,430.5
2022-08-17T12:01:18.945Z,430.8
2022-08-17T12:03:02.661Z,427.7
2022-08-17T12:04:46.385Z,423.8
2022-08-17T12:06:30.057Z,423.2
2022-08-17T12:08:13.759Z,426
2022-08-17T12:09:57.458Z,428.2
2022-08-17T12:11:41.170Z,429.2
2022-08-17T12:13:24.857Z,430.6
2022-08-17T12:15:08.581Z,435.2
2022-08-17T12:16:52.264Z,437.3
2022-08-17T12:18:35.973Z,438
2022-08-17T12:20:19.664Z,439.4
2022-08-17T12:22:03.380Z,439
2022-08-17T12:23:47.098Z,440.3
2022-08-17T12:25:30.804Z,439.2
2022-08-17T12:27:14.480Z,435.9
2022-08-17T12:28:58.193Z,434.2
2022-08-17T12:30:41.862Z,432
2022-08-17T12:32:25.588Z,426.2
2022-08-17T12:34:09.275Z,420.6
2022-08-17T12:35:52.972Z,420.2
2022-08-17T12:37:36.670Z,417.8
2022-08-17T12:39:20.377Z,412.9
2022-08-17T12:41:04.079Z,407.2
2022-08-17T12:42:47.790Z,403.4
2022-08-17T12:44:31.479Z,402.6
2022-08-17T12:46:15.184Z,402.5
2022-08-17T12:47:58.886Z,401
2022-08-17T12:49:42.576Z,397.1
2022-08-17T12:51:26.284Z,394.4
2022-08-17T12:53:09.998Z,394
2022-08-17T12:54:53.700Z,394.6
2022-08-17T12:56:37.384Z,395
2022-08-17T12:58:21.109Z,392.7
2022-08-17T13:00:04.810Z,391.4
2022-08-17T13:01:48.498Z,389.3
2022-08-17T13:03:32.216Z,387.2
2022-08-17T13:05:15.937Z,387.9
2022-08-17T13:06:59.605Z,389.1
2022-08-17T13:08:43.310Z,387.9
2022-08-17T13:10:27.025Z,391.5
2022-08-17T13:12:10.709Z,395.1
2022-08-17T13:13:54.410Z,394.6
2022-08-17T13:15:38.125Z,397.9
2022-08-17T13:17:21.822Z,400.4
2022-08-17T13:19:05.540Z,401.8
2022-08-17T13:20:49.218Z,402.2
2022-08-17T13:22:32.930Z,406.2
2022-08-17T13:24:16.682Z,409.5
2022-08-17T13:26:00.344Z,410.8
2022-08-17T13:27:44.034Z,412
2022-08-17T13:29:27.739Z,413.5
2022-08-17T13:31:11.445Z,416
2022-08-17T13:32:55.151Z,414.6
2022-08-17T13:34:38.829Z,413.6
2022-08-17T13:36:22.536Z,410.8
2022-08-17T13:38:06.244Z,410.5
2022-08-17T13:39:49.966Z,412.3
2022-08-17T13:41:33.639Z,408.8
2022-08-17T13:43:17.343Z,403.9
2022-08-17T13:45:01.037Z,402.2
2022-08-17T13:46:44.752Z,402.1
2022-08-17T13:48:28.444Z,401.9
2022-08-17T13:50:12.141Z,404.6
2022-08-17T13:51:55.853Z,406.9
2022-08-17T13:53:39.556Z,406.7
2022-08-17T13:55:23.245Z,405.8
2022-08-17T13:57:06.951Z,404
2022-08-17T13:58:50.646Z,406.1
2022-08-17T14:00:34.344Z,407.2
2022-08-17T14:02:18.060Z,404.8
2022-08-17T14:04:01.760Z,404.8
2022-08-17T14:05:45.452Z,405
2022-08-17T14:07:29.152Z,403
2022-08-17T14:09:12.877Z,403.8
2022-08-17T14:10:56.579Z,407
2022-08-17T14:12:40.279Z,406.8
2022-08-17T14:14:23.970Z,410.5
2022-08-17T14:16:07.675Z,417.6
2022-08-17T14:17:51.377Z,416.2
2022-08-17T14:19:35.087Z,412.9
2022-08-17T14:21:18.781Z,413.2
2022-08-17T14:23:02.468Z,411.1
2022-08-17T14:24:46.185Z,408.6
2022-08-17T14:26:29.885Z,407.9
2022-08-17T14:28:13.580Z,408.8
2022-08-17T14:29:57.270Z,409.2
2022-08-17T14:31:40.982Z,413.1
2022-08-17T14:33:24.689Z,414.4
2022-08-17T14:35:08.373Z,413.2
2022-08-17T14:36:52.082Z,413.9
2022-08-17T14:38:35.793Z,412.8
2022-08-17T14:40:19.512Z,408.2
2022-08-17T14:42:03.188Z,403.8
2022-08-17T14:43:46.885Z,400.7
2022-08-17T14:45:30.608Z,401.8
2022-08-17T14:47:14.299Z,401.2
2022-08-17T14:48:58.005Z,400.6
2022-08-17T14:50:41.731Z,401.6
2022-08-17T14:52:25.469Z,398.1
2022-08-17T14:54:09.111Z,397.8
2022-08-17T14:55:52.814Z,396.2
2022-08-17T14:57:36.508Z,395.2
2022-08-17T14:59:20.218Z,394.4
2022-08-17T15:01:03.930Z,393
2022-08-17T15:02:47.621Z,394.3
2022-08-17T15:04:31.313Z,397
2022-08-17T15:06:15.026Z,396.5
2022-08-17T15:07:58.740Z,394.5
2022-08-17T15:09:42.419Z,396.6
2022-08-17T15:11:26.145Z,397
2022-08-17T15:13:09.837Z,396
2022-08-17T15:14:53.534Z,395.3
2022-08-17T15:16:37.241Z,395.8
2022-08-17T15:18:20.937Z,397.8
2022-08-17T15:20:04.648Z,396.8
2022-08-17T15:21:48.353Z,396.3
2022-08-17T15:23:32.050Z,397
2022-08-17T15:25:15.760Z,394.7
2022-08-17T15:26:59.459Z,390.7
2022-08-17T15:28:43.162Z,389.1
2022-08-17T15:30:26.875Z,389.7
2022-08-17T15:32:10.570Z,388.5
2022-08-17T15:33:54.323Z,390.7
2022-08-17T15:35:37.957Z,391.8
2022-08-17T15:37:21.662Z,389.3
2022-08-17T15:39:05.364Z,387.5
2022-08-17T15:40:49.069Z,389.7
2022-08-17T15:42:32.877Z,392.6
2022-08-17T15:44:16.462Z,390
2022-08-17T15:46:00.162Z,386
2022-08-17T15:47:43.862Z,385.4
2022-08-17T15:49:27.562Z,385.4
2022-08-17T15:51:11.273Z,387.1
2022-08-17T15:52:54.966Z,389.5
2022-08-17T15:54:38.678Z,392.2
2022-08-17T15:56:22.370Z,389.4
2022-08-17T15:58:06.086Z,389.4
2022-08-17T15:59:49.782Z,390.8
2022-08-17T16:01:33.495Z,391.6
2022-08-17T16:03:17.179Z,390
2022-08-17T16:05:00.879Z,390
2022-08-17T16:06:44.598Z,386.2
2022-08-17T16:08:28.311Z,385.8
2022-08-17T16:10:11.999Z,385.5
2022-08-17T16:11:55.692Z,387.4
2022-08-17T16:13:39.404Z,392.9
2022-08-17T16:15:23.104Z,396.8
2022-08-17T16:17:06.785Z,396.6
2022-08-17T16:18:50.490Z,398.9
2022-08-17T16:20:34.243Z,401.6
2022-08-17T16:22:17.909Z,402.6
2022-08-17T16:24:01.617Z,405.5
2022-08-17T16:25:45.304Z,410.4
2022-08-17T16:27:28.994Z,414.1
2022-08-17T16:29:12.698Z,416.6
2022-08-17T16:30:56.405Z,420.3
2022-08-17T16:32:40.161Z,426.5
2022-08-17T16:34:23.798Z,438.1
2022-08-17T16:36:07.524Z,447.7
2022-08-17T16:37:51.197Z,448.4
2022-08-17T16:39:34.886Z,448.9
2022-08-17T16:41:18.707Z,449.1
2022-08-17T16:43:02.313Z,451.4
2022-08-17T16:44:45.996Z,456.1
2022-08-17T16:46:29.698Z,460.4
2022-08-17T16:48:13.407Z,460.9
2022-08-17T16:49:57.231Z,462.1
2022-08-17T16:51:40.799Z,463.8
2022-08-17T16:53:24.515Z,465.8
2022-08-17T16:55:08.211Z,469.8
2022-08-17T16:56:51.917Z,476.7
2022-08-17T16:58:35.655Z,486.5
2022-08-17T17:00:19.310Z,494.1
2022-08-17T17:02:03.014Z,497.5
2022-08-17T17:03:46.711Z,501.4
2022-08-17T17:05:30.421Z,508.5
2022-08-17T17:07:14.146Z,511.7
2022-08-17T17:08:57.827Z,512.3
2022-08-17T17:10:41.548Z,514.5
2022-08-17T17:12:25.236Z,514.6
2022-08-17T17:14:08.944Z,513.8
2022-08-17T17:15:52.651Z,516.3
2022-08-17T17:17:36.351Z,519
2022-08-17T17:19:20.048Z,519.1
2022-08-17T17:21:03.763Z,517.6
2022-08-17T17:22:47.462Z,516.6
2022-08-17T17:24:31.156Z,517.9
2022-08-17T17:26:14.858Z,520.8
2022-08-17T17:27:58.578Z,525.5
2022-08-17T17:29:42.271Z,526.6
2022-08-17T17:31:25.965Z,526.2
2022-08-17T17:33:09.711Z,526.9
2022-08-17T17:34:53.371Z,528.6
2022-08-17T17:36:37.079Z,526.9
2022-08-17T17:38:20.754Z,529.7
2022-08-17T17:40:04.500Z,533.7
2022-08-17T17:41:48.219Z,543.4
2022-08-17T17:43:31.878Z,546.3
2022-08-17T17:45:15.565Z,541.1
2022-08-17T17:46:59.301Z,546.6
2022-08-17T17:48:42.991Z,553.1
2022-08-17T17:50:26.687Z,554.6
2022-08-17T17:52:10.374Z,554.5
2022-08-17T17:53:54.082Z,556.3
2022-08-17T17:55:37.833Z,560.1
2022-08-17T17:57:21.500Z,561.2
2022-08-17T17:59:05.206Z,570.8
2022-08-17T18:00:48.912Z,584.8
2022-08-17T18:02:32.616Z,590
2022-08-17T18:04:16.315Z,589.8
2022-08-17T18:06:00.067Z,593
2022-08-17T18:07:43.716Z,595.5
2022-08-17T18:09:27.440Z,592.6
2022-08-17T18:11:11.122Z,592.6
2022-08-17T18:12:54.826Z,591.1
2022-08-17T18:14:38.528Z,589.8
2022-08-17T18:16:22.252Z,588.1
2022-08-17T18:18:05.930Z,589.6
2022-08-17T18:19:49.643Z,594.1
2022-08-17T18:21:33.348Z,598
2022-08-17T18:23:17.038Z,600.9
2022-08-17T18:25:00.750Z,604.6
2022-08-17T18:26:44.435Z,608.3
2022-08-17T18:28:28.134Z,614.3
2022-08-17T18:30:11.837Z,620.1
2022-08-17T18:31:55.554Z,629.3
2022-08-17T18:33:39.247Z,631.5
2022-08-17T18:35:22.941Z,637.3
2022-08-17T18:37:06.663Z,639.7
2022-08-17T18:38:50.333Z,641.7
2022-08-17T18:40:34.064Z,648.7
2022-08-17T18:42:17.764Z,652.6
2022-08-17T18:44:01.466Z,657.4
2022-08-17T18:45:45.162Z,659
2022-08-17T18:47:28.845Z,662.7
2022-08-17T18:49:12.562Z,664.2
2022-08-17T18:50:56.265Z,666.1
2022-08-17T18:52:39.959Z,667.3
2022-08-17T18:54:23.659Z,669.7
2022-08-17T18:56:07.371Z,669.4
2022-08-17T18:57:51.076Z,670.4
2022-08-17T18:59:34.759Z,672.8
2022-08-17T19:01:18.475Z,675.6
2022-08-17T19:03:02.182Z,677.2
2022-08-17T19:04:45.875Z,678.5
2022-08-17T19:06:29.579Z,680.3
2022-08-17T19:08:13.284Z,684
2022-08-17T19:09:56.984Z,686.2
2022-08-17T19:11:40.699Z,685.4
2022-08-17T19:13:24.393Z,688.9
2022-08-17T19:15:08.107Z,690.6
2022-08-17T19:16:51.798Z,690.2
2022-08-17T19:18:35.498Z,691.1
2022-08-17T19:20:19.199Z,699.7
2022-08-17T19:22:02.908Z,709
2022-08-17T19:23:46.623Z,709.1
2022-08-17T19:25:30.321Z,707.5
2022-08-17T19:27:14.025Z,707.8
2022-08-17T19:28:57.720Z,707.2
2022-08-17T19:30:41.421Z,713.1
2022-08-17T19:32:25.144Z,717.9
2022-08-17T19:34:08.842Z,724
2022-08-17T19:35:52.531Z,725.4
2022-08-17T19:37:36.255Z,726.4
2022-08-17T19:39:19.945Z,727.6
2022-08-17T19:41:03.633Z,729.3
2022-08-17T19:42:47.343Z,729.9
2022-08-17T19:44:31.057Z,729.4
2022-08-17T19:47:58.446Z,724.1
2022-08-17T19:49:42.142Z,725.6
2022-08-17T19:51:25.868Z,723.4
2022-08-17T19:53:09.541Z,720.4
2022-08-17T19:54:53.265Z,718.6
2022-08-17T19:56:36.962Z,714.7
2022-08-17T19:58:22.747Z,712
2022-08-17T20:00:04.360Z,645.2
2022-08-17T20:01:48.082Z,582
2022-08-17T20:03:31.768Z,549.8
2022-08-17T20:05:15.469Z,527.6
2022-08-17T20:06:59.182Z,507.2
2022-08-17T20:08:42.880Z,495
2022-08-17T20:10:26.611Z,484.1
2022-08-17T20:12:10.285Z,478.3
2022-08-17T20:13:53.977Z,474.7
2022-08-17T20:15:37.686Z,470.8
2022-08-17T20:17:21.389Z,469
2022-08-17T20:19:05.117Z,463.3
2022-08-17T20:20:48.799Z,456.6
2022-08-17T20:22:32.521Z,452.6
2022-08-17T20:24:16.206Z,450.6
2022-08-17T20:25:59.928Z,451.7
2022-08-17T20:27:43.623Z,453.8
2022-08-17T20:29:27.327Z,452.9
2022-08-17T20:31:11.021Z,454.4
2022-08-17T20:32:54.727Z,452.8
2022-08-17T20:34:38.437Z,449.3
2022-08-17T20:36:22.135Z,448.1
2022-08-17T20:38:05.843Z,445.2
2022-08-17T20:39:49.526Z,444.1
2022-08-17T20:41:33.229Z,443
2022-08-17T20:43:16.949Z,440.5
2022-08-17T20:45:00.647Z,438.2
2022-08-17T20:46:44.345Z,441.2
2022-08-17T20:48:28.055Z,441.1
2022-08-17T20:50:11.753Z,445.1
2022-08-17T20:51:55.476Z,446.2
2022-08-17T20:53:39.149Z,446.5
2022-08-17T20:55:22.853Z,446.8
2022-08-17T20:57:06.554Z,448.9
2022-08-17T20:58:50.275Z,448.1
2022-08-17T21:00:33.967Z,445.4
2022-08-17T21:02:17.671Z,444.3
2022-08-17T21:04:01.386Z,445.2
2022-08-17T21:05:45.088Z,448.4
2022-08-17T21:07:28.761Z,453.4
2022-08-17T21:09:12.491Z,454
2022-08-17T21:10:56.197Z,451.6
2022-08-17T21:12:39.874Z,449.8
2022-08-17T21:14:23.591Z,453
2022-08-17T21:16:07.287Z,455.9
2022-08-17T21:17:50.979Z,454.2
2022-08-17T21:19:34.690Z,452.3
2022-08-17T21:21:18.420Z,454
2022-08-17T21:23:02.096Z,454.9
2022-08-17T21:24:45.783Z,459.3
2022-08-17T21:26:29.508Z,463.2
2022-08-17T21:28:13.207Z,463.6
2022-08-17T21:29:56.892Z,460.8
2022-08-17T21:31:40.595Z,456.6
2022-08-17T21:33:24.298Z,455.8
2022-08-17T21:35:07.995Z,453
2022-08-17T21:36:51.688Z,453.2
2022-08-17T21:38:35.394Z,451.1
2022-08-17T21:40:19.107Z,448.6
2022-08-17T21:42:02.807Z,450.6
2022-08-17T21:43:46.487Z,456.9
2022-08-17T21:45:30.194Z,455.9
2022-08-17T21:47:13.890Z,454.8
2022-08-17T21:48:57.605Z,451.8
2022-08-17T21:50:41.291Z,451.2
2022-08-17T21:52:24.987Z,450.7
2022-08-17T21:54:08.693Z,450.5
2022-08-17T21:55:52.402Z,450.2
2022-08-17T21:57:36.120Z,454.7
2022-08-17T21:59:19.791Z,456.2
2022-08-17T22:01:03.491Z,456.5
2022-08-17T22:02:47.197Z,454.4
2022-08-17T22:04:30.878Z,455.9
2022-08-17T22:06:14.603Z,458.8
2022-08-17T22:07:58.288Z,459.3
2022-08-17T22:09:41.989Z,461.5
2022-08-17T22:11:25.674Z,461.5
2022-08-17T22:13:09.384Z,460.9
2022-08-17T22:14:53.083Z,457
2022-08-17T22:16:36.802Z,455.5
2022-08-17T22:18:20.496Z,456.5
2022-08-17T22:20:04.193Z,456.5
2022-08-17T22:21:47.888Z,453
2022-08-17T22:23:31.654Z,451.2
2022-08-17T22:25:15.295Z,450.1
2022-08-17T22:26:58.996Z,449
2022-08-17T22:28:42.690Z,443.8
2022-08-17T22:30:26.397Z,440.4
2022-08-17T22:32:10.093Z,439.7
2022-08-17T22:33:53.796Z,438.7
2022-08-17T22:35:37.497Z,439.4
2022-08-17T22:37:21.199Z,435.4
2022-08-17T22:39:04.902Z,430.9